Time;durP1;ratioP1;P1;durP2;ratioP2;P2;SDS_P1;SDS_P2;PMS_P1;PMS_P2;Temp;Humidity;BMP_temperature;BMP_pressure;BME280_temperature;BME280_humidity;BME280_pressure;Samples;Min_cycle;Max_cycle;Signal;HPM_P1;HPM_P2
2023/05/28 00:00:56;;;;;;;20.53;8.47;;;;;;;11.33;99.74;101901.34;4976580;28;20486;-95
2023/05/28 00:03:21;;;;;;;14.25;7.88;;;;;;;11.31;99.85;101918.72;4963476;28;20475;-95
2023/05/28 00:05:47;;;;;;;19.80;8.20;;;;;;;11.27;100.00;101904.97;4995133;28;20026;-96
2023/05/28 00:08:13;;;;;;;13.93;7.95;;;;;;;11.27;100.00;101909.53;4991279;28;20074;-95
2023/05/28 00:10:39;;;;;;;18.10;8.17;;;;;;;11.25;100.00;101899.03;4996245;28;20023;-96
2023/05/28 00:13:05;;;;;;;13.40;7.73;;;;;;;11.19;100.00;101900.78;4997345;28;20305;-95
2023/05/28 00:15:30;;;;;;;18.77;8.37;;;;;;;11.14;100.00;101891.81;5000740;28;20056;-95
2023/05/28 00:17:56;;;;;;;15.43;8.38;;;;;;;11.10;100.00;101893.34;4999912;28;20038;-96
2023/05/28 00:20:22;;;;;;;18.57;8.83;;;;;;;11.01;100.00;101895.56;4998653;28;20011;-96
2023/05/28 00:22:47;;;;;;;17.30;8.40;;;;;;;11.00;100.00;101893.94;5010918;28;20045;-95
2023/05/28 00:25:13;;;;;;;16.03;8.00;;;;;;;10.92;100.00;101884.38;5019210;28;20031;-95
2023/05/28 00:27:39;;;;;;;16.33;8.27;;;;;;;10.93;100.00;101894.06;5019972;28;20019;-96
2023/05/28 00:30:06;;;;;;;16.15;8.55;;;;;;;10.88;100.00;101892.06;5019148;28;20018;-96
2023/05/28 00:32:31;;;;;;;19.40;8.83;;;;;;;10.85;100.00;101887.19;4994266;28;20469;-95
2023/05/28 00:34:56;;;;;;;16.87;8.07;;;;;;;10.80;100.00;101895.09;4999108;28;20278;-96
2023/05/28 00:37:22;;;;;;;19.03;9.03;;;;;;;10.78;100.00;101891.00;4997250;28;20170;-96
2023/05/28 00:39:47;;;;;;;21.30;8.50;;;;;;;10.74;100.00;101886.13;4997478;28;20121;-96
2023/05/28 00:42:13;;;;;;;19.27;8.83;;;;;;;10.71;100.00;101897.31;4991839;28;20035;-96
2023/05/28 00:44:39;;;;;;;18.10;8.18;;;;;;;10.68;100.00;101887.06;4995380;28;20026;-95
2023/05/28 00:47:05;;;;;;;16.17;8.85;;;;;;;10.62;100.00;101898.69;4995871;28;20022;-96
2023/05/28 00:49:32;;;;;;;20.88;8.48;;;;;;;10.58;100.00;101898.34;4999525;28;20148;-96
2023/05/28 00:52:00;;;;;;;19.60;9.47;;;;;;;10.53;100.00;101892.06;4999755;28;20027;-96
2023/05/28 00:54:27;;;;;;;23.70;9.52;;;;;;;10.56;100.00;101903.13;4997156;28;20061;-96
2023/05/28 00:57:00;;;;;;;16.92;8.68;;;;;;;10.53;100.00;101900.91;4998234;28;20043;-93
2023/05/28 00:59:26;;;;;;;18.95;8.80;;;;;;;10.56;100.00;101895.06;4975596;28;20046;-93
2023/05/28 01:01:51;;;;;;;16.60;8.95;;;;;;;10.47;100.00;101887.59;4985905;28;20018;-96
2023/05/28 01:04:17;;;;;;;18.87;8.77;;;;;;;10.39;100.00;101889.59;5001593;28;20355;-96
2023/05/28 01:06:44;;;;;;;20.33;8.30;;;;;;;10.41;100.00;101884.00;4980401;28;20035;-96
2023/05/28 01:09:10;;;;;;;21.25;8.55;;;;;;;10.39;100.00;101894.94;4977047;28;20117;-95
2023/05/28 01:11:37;;;;;;;19.10;8.80;;;;;;;10.36;100.00;101890.03;4984412;28;20494;-96
2023/05/28 01:14:07;;;;;;;19.80;9.13;;;;;;;10.30;100.00;101888.25;4996249;28;20390;-96
2023/05/28 01:16:33;;;;;;;20.50;8.23;;;;;;;10.29;100.00;101890.13;4997381;28;20030;-96
2023/05/28 01:18:59;;;;;;;24.92;8.75;;;;;;;10.19;100.00;101879.13;4992675;28;20037;-96
2023/05/28 01:21:27;;;;;;;22.80;8.73;;;;;;;10.23;100.00;101887.53;4998028;28;20030;-96
2023/05/28 01:23:56;;;;;;;19.27;8.17;;;;;;;10.13;100.00;101877.41;4975634;28;20113;-96
2023/05/28 01:26:22;;;;;;;14.67;8.07;;;;;;;10.21;100.00;101884.28;4974969;28;21013;-96
2023/05/28 01:28:48;;;;;;;17.65;8.05;;;;;;;10.17;100.00;101891.13;4983998;28;20126;-96
2023/05/28 01:31:15;;;;;;;15.68;8.35;;;;;;;10.11;100.00;101882.97;4993753;28;20084;-96
2023/05/28 01:33:43;;;;;;;16.27;8.15;;;;;;;10.04;100.00;101884.09;4998722;28;20034;-96
2023/05/28 01:36:24;;;;;;;20.03;8.37;;;;;;;10.07;100.00;101892.50;4996977;28;20026;-93
2023/05/28 01:38:52;;;;;;;16.80;7.97;;;;;;;10.02;100.00;101895.06;4991758;28;20305;-92
2023/05/28 01:41:18;;;;;;;18.67;8.45;;;;;;;10.04;100.00;101895.66;4993117;28;20539;-93
2023/05/28 01:43:45;;;;;;;18.45;8.30;;;;;;;10.02;100.00;101895.06;4998267;28;20022;-92
2023/05/28 01:46:12;;;;;;;18.90;9.25;;;;;;;10.00;100.00;101889.09;4995490;28;20050;-93
2023/05/28 01:48:38;;;;;;;19.20;8.25;;;;;;;9.94;100.00;101893.53;4992358;28;20540;-94
2023/05/28 01:51:05;;;;;;;20.30;8.27;;;;;;;9.99;100.00;101900.88;4993215;28;20073;-94
2023/05/28 01:53:30;;;;;;;18.77;8.88;;;;;;;10.00;100.00;101899.81;4991810;28;20053;-95
2023/05/28 01:55:56;;;;;;;18.63;8.60;;;;;;;10.00;100.00;101902.50;4986449;28;20058;-94
2023/05/28 01:58:22;;;;;;;23.37;8.17;;;;;;;9.98;100.00;101888.53;4991527;28;20445;-94
2023/05/28 02:00:59;;;;;;;17.08;8.27;;;;;;;9.97;100.00;101900.28;4993151;28;20029;-93
2023/05/28 02:03:24;;;;;;;16.53;8.37;;;;;;;9.90;100.00;101881.63;4990319;28;20037;-93
2023/05/28 02:05:50;;;;;;;22.43;8.50;;;;;;;9.91;100.00;101887.78;4991150;28;20301;-93
2023/05/28 02:08:15;;;;;;;20.67;8.50;;;;;;;9.85;100.00;101890.34;4991578;28;20026;-92
2023/05/28 02:10:42;;;;;;;16.67;8.20;;;;;;;9.84;100.00;101883.34;4990763;28;20076;-93
2023/05/28 02:23:32;;;;;;;14.70;7.60;;;;;;;9.74;100.00;101876.91;5125371;23;20054;-96
2023/05/28 02:25:58;;;;;;;14.97;7.53;;;;;;;9.51;100.00;101838.28;5008948;28;20038;-96
2023/05/28 02:28:25;;;;;;;15.67;7.37;;;;;;;9.43;100.00;101836.75;5000473;28;20328;-96
2023/05/28 02:33:33;;;;;;;14.70;7.10;;;;;;;9.29;100.00;101838.75;5346023;23;20058;-96
2023/05/28 02:35:59;;;;;;;15.68;7.53;;;;;;;9.27;100.00;101832.00;4994477;28;20023;-96
2023/05/28 02:38:25;;;;;;;19.90;7.20;;;;;;;9.22;100.00;101833.47;4988005;28;20018;-96
2023/05/28 02:43:25;;;;;;;15.68;7.22;;;;;;;9.14;100.00;101838.31;5147097;23;22096;-94
2023/05/28 02:45:51;;;;;;;14.67;7.23;;;;;;;9.18;100.00;101856.34;4991360;28;20027;-96
2023/05/28 02:48:16;;;;;;;17.07;7.87;;;;;;;9.18;100.00;101867.06;4992902;28;20062;-95
2023/05/28 02:50:41;;;;;;;15.37;7.60;;;;;;;9.12;100.00;101856.44;4978949;28;20026;-96
2023/05/28 02:53:07;;;;;;;16.75;7.05;;;;;;;9.12;100.00;101873.31;4970511;28;20073;-96
2023/05/28 02:55:34;;;;;;;18.00;7.53;;;;;;;9.08;100.00;101866.78;4973838;28;20030;-96
2023/05/28 02:57:59;;;;;;;15.38;7.50;;;;;;;9.03;100.00;101869.28;4974889;28;20026;-95
2023/05/28 03:00:26;;;;;;;15.20;7.47;;;;;;;9.03;100.00;101872.78;4992022;28;20037;-96
2023/05/28 03:02:51;;;;;;;13.82;7.13;;;;;;;9.00;100.00;101872.38;4992204;28;20026;-96
2023/05/28 03:05:17;;;;;;;16.37;8.03;;;;;;;9.00;100.00;101875.91;4997047;28;20410;-95
2023/05/28 03:07:43;;;;;;;19.58;7.72;;;;;;;8.97;100.00;101878.19;4997040;28;20393;-95
2023/05/28 03:10:08;;;;;;;14.90;7.77;;;;;;;8.90;100.00;101873.72;4997120;28;20477;-95
2023/05/28 03:12:34;;;;;;;14.60;7.10;;;;;;;8.94;100.00;101885.63;4995432;28;20037;-95
2023/05/28 03:14:59;;;;;;;16.80;7.20;;;;;;;8.72;100.00;101853.13;5012717;23;20490;-95
2023/05/28 04:27:14;;;;;;;19.83;7.40;;;;;;;9.37;100.00;101880.44;5011101;28;20274;-96
2023/05/28 04:32:17;;;;;;;15.85;7.20;;;;;;;9.59;100.00;101909.41;5470711;23;20046;-96
2023/05/28 04:34:45;;;;;;;18.88;7.38;;;;;;;9.42;100.00;101882.41;5016175;28;20074;-96
2023/05/28 04:37:14;;;;;;;21.70;7.30;;;;;;;9.46;100.00;101876.41;4982388;28;20082;-96
2023/05/28 04:39:40;;;;;;;21.33;7.82;;;;;;;9.57;100.00;101888.22;4994761;28;20026;-96
2023/05/28 04:42:09;;;;;;;17.55;7.32;;;;;;;9.73;100.00;101892.13;5012935;28;20086;-96
2023/05/28 04:44:34;;;;;;;19.67;7.70;;;;;;;9.97;100.00;101914.47;5523921;23;20031;-95
2023/05/28 04:46:59;;;;;;;19.30;8.73;;;;;;;10.08;100.00;101925.47;4994146;28;20088;-86
2023/05/28 04:49:25;;;;;;;21.53;8.37;;;;;;;10.11;100.00;101917.78;4991838;28;20113;-85
2023/05/28 04:51:51;;;;;;;15.60;8.45;;;;;;;10.41;100.00;101916.94;4982859;28;20053;-85
2023/05/28 04:54:16;;;;;;;16.58;7.03;;;;;;;11.34;100.00;101918.25;4968796;28;20038;-85
2023/05/28 04:56:41;;;;;;;20.33;8.27;;;;;;;12.45;100.00;101927.06;4957008;28;20075;-85
2023/05/28 04:59:09;;;;;;;14.20;6.93;;;;;;;13.44;98.54;101918.56;4973417;28;20030;-85
2023/05/28 05:01:35;;;;;;;15.63;6.95;;;;;;;14.32;94.43;101922.19;4962038;28;20027;-85
2023/05/28 05:04:01;;;;;;;18.70;6.93;;;;;;;15.13;89.63;101920.38;4957730;28;20136;-85
2023/05/28 05:06:26;;;;;;;18.80;6.87;;;;;;;15.72;84.82;101926.53;4971135;28;20070;-86
2023/05/28 05:08:53;;;;;;;15.10;6.57;;;;;;;16.13;81.32;101928.56;4976120;28;20022;-83
2023/05/28 05:11:19;;;;;;;18.83;6.88;;;;;;;16.52;79.58;101932.63;4957122;28;20144;-85
2023/05/28 05:13:44;;;;;;;12.83;6.40;;;;;;;16.85;78.24;101938.53;4961818;28;20023;-84
2023/05/28 05:16:10;;;;;;;16.90;6.60;;;;;;;16.99;75.54;101931.50;4992429;28;20022;-85
2023/05/28 05:18:35;;;;;;;13.57;6.47;;;;;;;17.19;73.91;101932.53;4978026;28;20035;-85
2023/05/28 05:21:00;;;;;;;13.23;6.73;;;;;;;17.36;73.66;101940.34;4954576;29;20034;-86
2023/05/28 05:23:26;;;;;;;18.37;7.00;;;;;;;17.60;72.85;101934.28;4976512;28;20030;-84
2023/05/28 05:25:51;;;;;;;15.82;7.25;;;;;;;17.93;71.42;101938.16;4966667;28;20035;-84
2023/05/28 05:28:17;;;;;;;17.40;6.73;;;;;;;18.14;71.22;101941.59;4973536;28;20085;-85
2023/05/28 05:30:42;;;;;;;13.13;6.40;;;;;;;18.53;68.86;101939.13;4972999;28;20052;-85
2023/05/28 05:33:08;;;;;;;16.30;6.57;;;;;;;18.88;66.03;101942.59;4973981;28;20355;-86
2023/05/28 05:35:33;;;;;;;16.40;6.90;;;;;;;19.09;64.73;101942.38;4963905;28;20077;-85
2023/05/28 05:37:58;;;;;;;15.63;7.03;;;;;;;18.85;64.73;101943.94;4964157;28;20415;-85
2023/05/28 05:40:24;;;;;;;18.77;7.40;;;;;;;18.62;66.12;101938.19;4965332;28;20043;-85
2023/05/28 05:42:49;;;;;;;17.60;6.83;;;;;;;18.47;68.31;101957.31;4950090;28;20047;-86
2023/05/28 05:45:14;;;;;;;18.45;7.30;;;;;;;18.39;67.30;101955.25;4957629;28;20035;-84
2023/05/28 05:47:40;;;;;;;16.33;6.70;;;;;;;18.22;67.85;101953.72;4984652;28;20447;-85
2023/05/28 05:50:05;;;;;;;15.20;6.43;;;;;;;18.09;69.35;101952.47;4991747;28;20109;-85
2023/05/28 05:52:31;;;;;;;19.88;7.32;;;;;;;18.01;69.79;101953.88;4974954;28;20451;-85
2023/05/28 05:54:56;;;;;;;15.30;6.47;;;;;;;17.86;70.97;101957.44;4960077;28;20037;-85
2023/05/28 05:57:22;;;;;;;16.53;6.83;;;;;;;17.72;70.77;101959.16;4977657;28;20479;-86
2023/05/28 05:59:47;;;;;;;21.37;7.63;;;;;;;17.28;72.39;101965.28;4967137;28;20046;-86
2023/05/28 06:02:12;;;;;;;17.03;7.67;;;;;;;16.75;74.57;101966.44;4952555;28;20366;-86
2023/05/28 06:04:38;;;;;;;17.53;7.60;;;;;;;16.55;76.45;101959.94;4953890;28;20039;-86
2023/05/28 06:07:04;;;;;;;18.30;7.83;;;;;;;16.50;76.84;101962.66;4952996;29;20039;-86
2023/05/28 06:09:31;;;;;;;18.40;6.85;;;;;;;16.47;76.57;101958.59;4968858;28;20031;-87
2023/05/28 06:11:56;;;;;;;15.35;7.07;;;;;;;16.33;78.06;101963.75;4965068;28;20058;-88
2023/05/28 06:14:23;;;;;;;21.70;8.07;;;;;;;16.07;78.86;101956.66;4958322;28;20162;-86
2023/05/28 06:16:48;;;;;;;12.57;7.20;;;;;;;15.87;79.67;101952.81;4957835;28;20055;-85
2023/05/28 06:19:14;;;;;;;15.27;7.72;;;;;;;15.77;81.14;101953.56;4954260;28;20121;-86
2023/05/28 06:21:40;;;;;;;19.40;7.65;;;;;;;15.72;83.06;101942.75;4953830;28;20110;-87
2023/05/28 06:24:06;;;;;;;21.57;7.90;;;;;;;15.69;83.86;101949.50;4967521;28;20439;-86
2023/05/28 06:26:32;;;;;;;16.63;7.15;;;;;;;15.77;82.91;101950.88;4971095;28;20031;-86
2023/05/28 06:28:57;;;;;;;20.33;7.20;;;;;;;15.88;82.67;101943.63;4970855;28;20082;-87
2023/05/28 06:31:22;;;;;;;17.93;7.10;;;;;;;16.03;83.57;101951.78;4953150;28;20562;-86
2023/05/28 06:33:48;;;;;;;14.77;7.47;;;;;;;16.26;83.21;101946.13;4965090;28;20028;-87
2023/05/28 06:36:13;;;;;;;14.97;7.27;;;;;;;16.41;81.73;101945.34;4971304;28;20027;-87
2023/05/28 06:38:38;;;;;;;14.83;7.63;;;;;;;16.59;81.40;101952.09;4979245;28;20483;-87
2023/05/28 06:41:05;;;;;;;15.13;7.20;;;;;;;16.76;79.41;101947.22;4969747;28;20491;-86
2023/05/28 06:43:30;;;;;;;17.17;8.27;;;;;;;16.86;78.57;101953.69;4969165;28;20074;-87
2023/05/28 06:45:56;;;;;;;17.87;7.40;;;;;;;17.03;78.87;101951.53;4961533;28;20038;-87
2023/05/28 06:48:21;;;;;;;18.75;7.63;;;;;;;17.27;78.14;101953.66;4952840;28;20039;-87
2023/05/28 06:50:46;;;;;;;13.13;7.47;;;;;;;17.40;75.49;101944.91;4952979;28;20027;-88
2023/05/28 06:53:12;;;;;;;16.00;7.53;;;;;;;17.55;74.61;101949.47;4980742;28;20034;-90
2023/05/28 06:55:37;;;;;;;17.57;7.53;;;;;;;17.82;76.81;101944.72;4979557;28;20089;-89
2023/05/28 06:58:03;;;;;;;17.17;7.80;;;;;;;18.22;71.93;101945.59;4966129;28;20029;-93
2023/05/28 07:00:28;;;;;;;15.18;7.13;;;;;;;18.53;70.98;101939.91;4971219;28;20518;-96
2023/05/28 07:02:53;;;;;;;15.83;6.70;;;;;;;18.82;67.69;101941.81;4975095;28;20094;-94
2023/05/28 07:05:18;;;;;;;16.03;6.90;;;;;;;18.95;65.07;101945.00;4973009;28;20110;-93
2023/05/28 07:07:44;;;;;;;19.73;6.33;;;;;;;19.05;64.87;101958.44;4992283;28;20548;-93
2023/05/28 07:10:11;;;;;;;13.33;7.03;;;;;;;19.11;63.39;101956.47;4969835;28;20031;-94
2023/05/28 07:12:37;;;;;;;17.73;6.90;;;;;;;19.33;63.42;101945.91;4969183;28;20077;-94
2023/05/28 07:15:04;;;;;;;16.88;7.10;;;;;;;19.45;62.39;101953.66;4954492;28;20044;-94
2023/05/28 07:17:29;;;;;;;14.90;6.40;;;;;;;19.46;61.54;101944.41;4975403;28;20031;-96
2023/05/28 07:19:55;;;;;;;15.87;6.23;;;;;;;19.68;60.43;101951.19;4985117;28;20050;-93
2023/05/28 07:22:20;;;;;;;15.15;6.30;;;;;;;19.87;59.69;101953.13;4978475;28;20040;-92
2023/05/28 07:24:46;;;;;;;15.87;6.27;;;;;;;20.09;57.71;101955.25;4960579;28;20042;-93
2023/05/28 07:27:11;;;;;;;12.47;6.57;;;;;;;20.20;57.28;101956.72;4976276;28;20089;-93
2023/05/28 07:29:36;;;;;;;19.13;7.20;;;;;;;20.24;56.87;101965.13;4975460;28;20058;-93
2023/05/28 07:32:02;;;;;;;14.90;6.23;;;;;;;20.10;57.54;101965.84;4973730;28;20041;-93
2023/05/28 07:34:27;;;;;;;16.35;6.78;;;;;;;19.92;57.96;101964.75;4961898;28;20030;-96
2023/05/28 07:36:52;;;;;;;11.67;6.53;;;;;;;19.86;58.28;101956.94;4970638;28;20581;-95
2023/05/28 07:39:18;;;;;;;15.30;6.30;;;;;;;19.76;55.90;101964.13;4964506;28;20558;-94
2023/05/28 07:41:44;;;;;;;12.55;5.78;;;;;;;19.86;57.49;101965.09;4939188;28;20027;-93
2023/05/28 07:44:10;;;;;;;19.20;6.60;;;;;;;20.01;56.02;101959.47;4954012;28;20027;-93
2023/05/28 07:46:36;;;;;;;12.48;6.13;;;;;;;20.27;56.64;101967.22;4974981;28;20086;-93
2023/05/28 07:49:02;;;;;;;15.80;6.43;;;;;;;20.34;55.80;101970.38;4963405;28;20499;-93
2023/05/28 07:51:27;;;;;;;15.90;6.60;;;;;;;20.37;54.76;101964.34;4961054;28;20034;-93
2023/05/28 07:53:53;;;;;;;14.15;6.03;;;;;;;20.50;54.74;101957.34;4963632;28;20054;-92
2023/05/28 07:56:21;;;;;;;14.07;6.22;;;;;;;20.69;54.73;101959.22;4971842;28;20041;-95
2023/05/28 07:58:46;;;;;;;12.10;6.07;;;;;;;20.72;53.32;101962.13;4983364;28;20035;-90
2023/05/28 08:01:11;;;;;;;16.17;6.23;;;;;;;20.70;53.56;101967.06;4971939;28;20058;-94
2023/05/28 08:03:37;;;;;;;14.90;6.90;;;;;;;20.59;53.60;101965.63;4993811;28;20134;-92
2023/05/28 08:06:03;;;;;;;18.35;6.55;;;;;;;20.33;53.69;101957.88;4978027;28;20031;-90
2023/05/28 08:08:29;;;;;;;19.35;6.57;;;;;;;20.21;55.08;101962.97;4954022;28;20118;-89
2023/05/28 08:10:54;;;;;;;15.27;6.13;;;;;;;20.00;56.74;101957.03;4959278;28;20562;-93
2023/05/28 08:13:20;;;;;;;13.50;5.77;;;;;;;19.77;57.09;101957.59;4961742;28;20105;-93
2023/05/28 08:15:47;;;;;;;11.43;5.70;;;;;;;19.53;56.41;101957.63;4975037;28;20494;-95
2023/05/28 08:18:12;;;;;;;12.82;5.20;;;;;;;19.30;58.14;101956.56;4982833;28;20145;-96
2023/05/28 08:25:51;;;;;;;14.30;6.40;;;;;;;18.75;62.33;101936.72;5470357;23;20035;-93
2023/05/28 08:28:17;;;;;;;19.30;7.30;;;;;;;18.70;65.46;101944.09;5350354;23;20058;-96
2023/05/28 08:30:43;;;;;;;17.92;7.97;;;;;;;18.65;66.82;101933.28;4997492;28;20521;-95
2023/05/28 08:33:08;;;;;;;22.63;7.83;;;;;;;18.90;68.07;101941.19;4978699;28;20096;-96
2023/05/28 08:35:35;;;;;;;19.40;7.33;;;;;;;19.31;67.29;101937.25;4983372;28;20031;-96
2023/05/28 08:38:03;;;;;;;17.75;7.82;;;;;;;19.67;64.94;101939.50;4997033;28;20034;-95
2023/05/28 08:43:03;;;;;;;11.40;3.72;;;;;;;20.22;53.49;101929.22;5044426;23;20050;-95
2023/05/28 08:45:29;;;;;;;12.37;3.97;;;;;;;20.71;51.87;101946.91;5214568;23;20057;-96
2023/05/28 08:47:56;;;;;;;13.43;3.47;;;;;;;20.95;49.71;101953.31;4974949;28;20058;-95
2023/05/28 08:50:24;;;;;;;9.83;3.83;;;;;;;20.98;49.40;101955.44;4984544;28;20023;-96
2023/05/28 08:52:51;;;;;;;11.33;4.20;;;;;;;20.98;49.09;101945.34;5060494;23;20265;-96
2023/05/28 08:55:16;;;;;;;10.75;4.10;;;;;;;21.03;48.47;101942.50;4994256;28;20026;-96
2023/05/28 08:57:46;;;;;;;9.73;4.00;;;;;;;20.84;49.78;101925.44;5045908;23;20642;-96
2023/05/28 09:00:13;;;;;;;10.37;4.33;;;;;;;21.20;50.85;101949.28;5190749;23;20042;-95
2023/05/28 09:02:39;;;;;;;9.02;3.70;;;;;;;21.27;49.42;101948.91;5002299;28;20034;-92
2023/05/28 09:05:05;;;;;;;10.82;4.15;;;;;;;21.38;48.94;101938.56;4971685;28;20058;-93
2023/05/28 09:07:32;;;;;;;10.02;3.90;;;;;;;21.58;47.07;101943.59;4991046;28;20034;-89
2023/05/28 09:09:58;;;;;;;10.02;3.90;;;;;;;21.85;48.33;101936.50;4996177;28;20074;-92
2023/05/28 09:12:23;;;;;;;11.15;4.18;;;;;;;21.97;47.71;101933.22;4979358;28;20038;-92
2023/05/28 09:14:52;;;;;;;11.87;5.00;;;;;;;21.94;48.38;101929.16;4979710;28;20040;-93
2023/05/28 09:17:17;;;;;;;15.25;4.68;;;;;;;22.19;49.92;101928.84;5001124;28;20043;-92
2023/05/28 09:19:52;;;;;;;17.05;5.47;;;;;;;22.26;47.79;101934.69;4995930;28;20022;-93
2023/05/28 09:22:18;;;;;;;14.30;5.15;;;;;;;22.14;47.06;101927.06;5010560;28;20030;-91
2023/05/28 09:24:48;;;;;;;10.90;4.80;;;;;;;22.33;47.70;101934.25;4985038;28;20121;-95
2023/05/28 09:27:17;;;;;;;11.70;4.40;;;;;;;22.50;44.73;101931.66;4995993;28;20285;-94
2023/05/28 09:29:42;;;;;;;8.18;3.85;;;;;;;22.67;43.54;101922.75;4964771;28;20046;-94
2023/05/28 09:32:08;;;;;;;11.60;3.92;;;;;;;22.89;44.26;101928.47;4988764;28;20035;-94
2023/05/28 09:34:34;;;;;;;10.40;4.20;;;;;;;23.19;44.15;101926.81;4977114;28;20588;-93
2023/05/28 09:37:20;;;;;;;8.68;4.07;;;;;;;23.38;44.74;101928.50;4985607;28;20046;-95
2023/05/28 09:39:45;;;;;;;10.23;4.20;;;;;;;23.49;43.08;101935.25;4978652;28;20054;-95
2023/05/28 09:42:13;;;;;;;11.40;4.13;;;;;;;23.59;43.07;101939.63;4991701;28;20030;-96
2023/05/28 09:44:42;;;;;;;11.02;3.83;;;;;;;23.86;42.99;101929.50;4994876;28;20025;-96
2023/05/28 09:47:32;;;;;;;11.82;3.85;;;;;;;24.04;43.29;101933.88;4966830;28;20027;-96
2023/05/28 09:49:59;;;;;;;11.68;4.47;;;;;;;23.93;41.31;101921.59;4994504;28;20034;-96
2023/05/28 09:52:27;;;;;;;9.87;4.20;;;;;;;23.99;39.69;101922.28;4981308;28;20034;-94
2023/05/28 09:54:59;;;;;;;10.27;4.45;;;;;;;23.81;39.98;101896.81;4963824;29;20023;-96
2023/05/28 09:57:29;;;;;;;11.23;4.20;;;;;;;23.95;39.83;101905.66;4982840;28;20082;-96
2023/05/28 09:59:55;;;;;;;14.60;3.97;;;;;;;24.05;40.61;101920.97;4965144;29;20031;-95
2023/05/28 10:02:46;;;;;;;10.25;4.20;;;;;;;24.43;42.02;101919.47;4974089;28;20033;-96
2023/05/28 10:05:16;;;;;;;12.60;4.15;;;;;;;24.50;39.87;101919.75;4990705;28;20030;-93
2023/05/28 10:07:44;;;;;;;14.83;4.10;;;;;;;24.45;39.58;101906.25;4982016;28;20030;-96
2023/05/28 10:10:12;;;;;;;9.13;3.77;;;;;;;24.42;39.31;101910.44;4984487;28;20970;-92
2023/05/28 10:12:38;;;;;;;10.52;3.97;;;;;;;24.40;39.76;101904.47;4976107;28;20502;-93
2023/05/28 10:15:06;;;;;;;11.25;4.05;;;;;;;24.45;38.17;101898.03;4973636;28;20058;-91
2023/05/28 10:17:31;;;;;;;11.45;4.40;;;;;;;24.62;38.56;101916.34;4977378;28;20073;-93
2023/05/28 10:19:57;;;;;;;14.93;5.00;;;;;;;24.67;39.78;101927.13;4980367;28;20039;-94
2023/05/28 10:22:22;;;;;;;9.87;4.07;;;;;;;24.71;38.54;101924.53;4980025;28;20027;-94
2023/05/28 10:24:48;;;;;;;8.13;3.90;;;;;;;24.89;37.82;101920.59;4976999;28;20061;-94
2023/05/28 10:27:18;;;;;;;8.43;3.97;;;;;;;24.97;37.10;101916.22;4977158;28;20037;-94
2023/05/28 10:29:48;;;;;;;8.63;4.27;;;;;;;25.23;36.67;101915.25;4978932;28;20056;-93
2023/05/28 10:32:15;;;;;;;9.25;4.10;;;;;;;25.29;36.99;101919.41;4959726;28;20046;-92
2023/05/28 10:34:41;;;;;;;8.43;4.38;;;;;;;24.91;36.65;101914.81;4975961;28;20033;-93
2023/05/28 10:37:09;;;;;;;7.40;4.10;;;;;;;25.13;37.22;101921.94;4987350;28;20026;-96
2023/05/28 10:39:47;;;;;;;8.80;4.15;;;;;;;25.57;36.14;101924.41;4994139;28;20050;-96
2023/05/28 10:42:18;;;;;;;11.40;3.90;;;;;;;25.70;36.14;101922.53;4993400;28;20027;-95
2023/05/28 10:44:59;;;;;;;8.90;4.23;;;;;;;25.63;35.63;101922.28;4973987;28;20314;-90
2023/05/28 10:47:53;;;;;;;9.70;4.07;;;;;;;25.84;35.83;101922.25;4975286;28;20050;-94
2023/05/28 10:50:20;;;;;;;9.50;3.83;;;;;;;26.19;34.69;101921.97;4973552;28;20487;-93
2023/05/28 10:53:06;;;;;;;9.60;4.15;;;;;;;26.33;34.43;101929.09;4955692;29;20023;-93
2023/05/28 10:55:53;;;;;;;9.90;4.22;;;;;;;26.32;33.84;101930.25;4954908;28;20427;-94
2023/05/28 10:58:35;;;;;;;9.60;3.63;;;;;;;26.29;33.85;101924.28;4964536;28;20034;-91
2023/05/28 11:01:10;;;;;;;9.35;4.40;;;;;;;26.15;33.77;101926.53;4969524;28;20031;-92
2023/05/28 11:03:47;;;;;;;8.15;3.92;;;;;;;26.28;33.31;101924.63;4979849;28;20045;-94
2023/05/28 11:06:13;;;;;;;8.65;4.13;;;;;;;25.94;32.94;101926.53;4979946;28;20041;-96
2023/05/28 11:08:41;;;;;;;8.33;3.60;;;;;;;25.81;33.74;101922.94;4971307;28;20479;-95
2023/05/28 11:11:06;;;;;;;9.77;3.57;;;;;;;25.81;34.06;101929.22;4975014;28;20637;-93
2023/05/28 11:13:33;;;;;;;8.50;4.00;;;;;;;25.39;33.67;101919.03;4955134;28;20023;-92
2023/05/28 11:16:11;;;;;;;8.43;3.72;;;;;;;25.07;34.45;101923.25;4960717;28;20034;-92
2023/05/28 11:18:37;;;;;;;8.20;4.00;;;;;;;25.01;34.61;101919.13;4954321;28;20026;-89
2023/05/28 11:21:08;;;;;;;9.68;4.50;;;;;;;25.03;36.43;101922.28;4973017;28;20466;-91
2023/05/28 11:23:36;;;;;;;9.77;3.90;;;;;;;24.91;35.74;101920.28;4956340;28;20047;-92
2023/05/28 11:26:03;;;;;;;7.65;4.10;;;;;;;24.97;36.67;101918.94;4974316;28;20475;-92
2023/05/28 11:28:28;;;;;;;9.23;4.68;;;;;;;25.16;36.11;101929.50;4968934;28;20137;-92
2023/05/28 11:30:56;;;;;;;11.40;4.07;;;;;;;25.05;36.57;101917.28;4975350;28;20031;-91
2023/05/28 11:33:21;;;;;;;10.47;3.50;;;;;;;25.14;34.88;101923.53;4974188;28;20081;-90
2023/05/28 11:35:56;;;;;;;11.80;4.07;;;;;;;25.23;36.35;101918.00;4973547;28;20297;-90
2023/05/28 11:38:21;;;;;;;9.68;4.15;;;;;;;25.24;35.22;101911.38;4976811;28;20430;-93
2023/05/28 11:40:48;;;;;;;8.80;3.77;;;;;;;25.39;35.79;101918.22;4974554;28;20050;-90
2023/05/28 11:43:13;;;;;;;12.50;5.10;;;;;;;25.44;35.48;101923.53;4973730;28;20337;-89
2023/05/28 11:45:39;;;;;;;9.23;4.57;;;;;;;25.50;35.49;101924.13;4970370;28;20122;-89
2023/05/28 11:48:10;;;;;;;7.95;4.00;;;;;;;25.87;35.67;101915.31;4957995;28;20031;-91
2023/05/28 11:50:36;;;;;;;9.47;4.43;;;;;;;26.03;34.32;101924.50;4974189;28;20023;-91
2023/05/28 11:53:01;;;;;;;9.03;4.47;;;;;;;25.99;33.49;101918.09;4972438;28;21021;-89
2023/05/28 11:55:27;;;;;;;8.17;3.80;;;;;;;26.30;34.33;101906.66;4970432;28;20061;-90
2023/05/28 11:57:55;;;;;;;8.30;3.70;;;;;;;26.45;33.71;101918.94;4971192;28;20023;-90
2023/05/28 12:00:32;;;;;;;10.32;4.18;;;;;;;26.72;33.94;101919.41;4983658;28;20038;-90
2023/05/28 12:02:58;;;;;;;7.32;4.13;;;;;;;26.74;31.63;101911.63;4987327;28;20027;-90
2023/05/28 12:05:23;;;;;;;8.30;4.03;;;;;;;26.78;30.57;101914.50;4989068;28;20144;-91
2023/05/28 12:07:50;;;;;;;7.57;3.67;;;;;;;26.69;30.83;101917.34;4997567;28;20022;-90
2023/05/28 12:10:20;;;;;;;8.00;3.20;;;;;;;26.57;29.77;101912.63;5006288;28;20117;-92
2023/05/28 12:12:55;;;;;;;6.00;2.93;;;;;;;26.67;30.37;101908.63;5006214;28;20042;-92
2023/05/28 12:15:29;;;;;;;9.90;3.80;;;;;;;26.50;31.31;101906.09;4974200;29;20270;-91
2023/05/28 12:18:00;;;;;;;10.63;3.75;;;;;;;26.44;31.04;101916.53;4976307;28;20039;-91
2023/05/28 12:20:34;;;;;;;10.35;3.85;;;;;;;26.48;32.21;101922.16;4958631;29;20046;-91
2023/05/28 12:23:04;;;;;;;11.02;4.18;;;;;;;26.87;33.18;101912.47;4987402;28;20022;-92
2023/05/28 12:25:38;;;;;;;8.50;4.15;;;;;;;26.98;32.70;101909.25;4986008;28;20019;-92
2023/05/28 12:28:03;;;;;;;7.78;3.45;;;;;;;27.42;31.47;101903.91;4999176;28;20035;-92
2023/05/28 12:30:28;;;;;;;10.77;3.90;;;;;;;27.77;31.64;101911.63;4997735;28;20047;-93
2023/05/28 12:32:54;;;;;;;9.30;4.20;;;;;;;27.83;31.89;101901.16;4984315;28;20039;-94
2023/05/28 12:35:19;;;;;;;9.33;3.83;;;;;;;28.04;30.68;101900.16;4959305;28;20057;-94
2023/05/28 12:37:45;;;;;;;7.47;4.13;;;;;;;28.31;31.90;101908.72;4977215;28;20631;-93
2023/05/28 12:40:10;;;;;;;7.25;3.65;;;;;;;28.27;31.71;101914.16;4975208;28;20034;-94
2023/05/28 12:42:36;;;;;;;10.23;3.72;;;;;;;28.17;30.34;101898.94;4973917;28;20035;-92
2023/05/28 12:45:02;;;;;;;10.10;3.30;;;;;;;28.42;28.73;101904.31;4976937;28;20026;-93
2023/05/28 12:47:27;;;;;;;7.93;3.57;;;;;;;28.58;28.73;101900.75;4980698;28;20658;-92
2023/05/28 12:49:52;;;;;;;10.02;3.55;;;;;;;28.52;29.23;101902.97;4974462;28;20031;-92
2023/05/28 12:52:17;;;;;;;9.23;4.00;;;;;;;28.34;29.84;101897.00;4974747;28;20038;-91